Oosterschelde — PGNP — position and weather

sailwx.info

Track history (hours):
 
Tides and Currents Weather Stations Pressure Air Temp Water Temp Dewpoint Dewpoint Depression Visibility Wind Speed Wind Dir Waves Ship Positions

Oosterschelde (Netherlands)

Ship's website: http://www.oosterschelde.nl/indexuk.htm

Last reported at 2019-Jun-16 23:30 UTC. Time now 2019-Jun-17 19:27 UTC.
Position N 49°27' W 000°05'.

Length 49 m; draft 2.9 m.

Type: Sailing vessel. MMSI: 246010985.

Date/timePositionNaut miles runAvg speedWind from/ knotsBaromVisibWave heightAir tempDewpointWater temp
2019-Jun-16 23:30N 49°27' W 000°05'3 6.4
2019-Jun-16 23:00N 49°27' W 000°00'3 5.8
2019-Jun-16 22:30N 49°26' E 000°04'3 6.1
2019-Jun-16 22:00N 49°26' E 000°09'3 6.1
2019-Jun-16 21:30N 49°26' E 000°14'3 5.6
2019-Jun-16 21:00N 49°26' E 000°18'3 5.4
2019-Jun-16 20:30N 49°27' E 000°22'2 4.6
2019-Jun-16 20:00N 49°27' E 000°25'2 4.0
2019-Jun-16 19:30N 49°28' E 000°28'1 2.6
2019-Jun-16 19:00N 49°29' E 000°29'0 0.0
2019-Jun-16 18:30N 49°29' E 000°29'1 2.3
2019-Jun-16 18:00N 49°29' E 000°31'5 9.1
2019-Jun-16 17:30N 49°26' E 000°36'4 8.9
2019-Jun-16 17:00N 49°29' E 000°40'4 7.4
2019-Jun-16 16:30N 49°31' E 000°45'4 8.4
2019-Jun-16 16:00N 49°28' E 000°49'4 8.6
2019-Jun-16 15:30N 49°24' E 000°50'3 6.4
2019-Jun-16 15:00N 49°27' E 000°51'3 6.6
2019-Jun-16 14:30N 49°29' E 000°55'4 8.4
2019-Jun-16 14:00N 49°25' E 000°56'4 7.4
2019-Jun-16 13:30N 49°21' E 000°56'3 5.4
2019-Jun-16 13:00N 49°22' E 000°60'3 5.2
2019-Jun-16 12:30N 49°25' E 001°01'2 4.7
2019-Jun-16 12:00N 49°26' E 001°03'1 1.1
2019-Jun-16 11:24N 49°27' E 001°04'0 0.0
2019-Jun-16 11:00N 49°27' E 001°04'0 0.0
2019-Jun-16 10:27N 49°27' E 001°04'0 0.0
2019-Jun-16 09:57N 49°27' E 001°04'0 0.0
2019-Jun-16 08:48N 49°27' E 001°04'0 0.0
2019-Jun-16 08:30N 49°27' E 001°04'0 0.0
2019-Jun-16 08:00N 49°27' E 001°04'0 0.0
2019-Jun-16 07:12N 49°27' E 001°04'0 0.0
2019-Jun-16 06:57N 49°27' E 001°04'0 0.0
2019-Jun-16 06:27N 49°27' E 001°04'0 0.0
2019-Jun-16 05:57N 49°27' E 001°04'0 0.0
2019-Jun-16 05:30N 49°27' E 001°04'0 0.0
2019-Jun-16 05:00N 49°27' E 001°04'0 0.0
2019-Jun-16 04:30N 49°27' E 001°04'0 0.0
2019-Jun-16 03:51N 49°27' E 001°04'0 0.0
2019-Jun-16 03:18N 49°27' E 001°04'0 0.0
2019-Jun-16 02:54N 49°27' E 001°04'0 0.0
2019-Jun-16 02:30N 49°27' E 001°04'0 0.0
2019-Jun-16 01:57N 49°27' E 001°04'0 0.0
2019-Jun-16 01:27N 49°27' E 001°04'0 0.0
2019-Jun-16 00:48N 49°27' E 001°04'0 0.0
2019-Jun-16 00:30N 49°27' E 001°04'0 0.0
2019-Jun-15 23:54N 49°27' E 001°04'0 0.0
2019-Jun-15 23:12N 49°27' E 001°04'0 0.0
2019-Jun-15 22:54N 49°27' E 001°04'0 0.0
2019-Jun-15 22:30N 49°27' E 001°04'0 0.0
2019-Jun-15 22:00N 49°27' E 001°04'0 0.0
2019-Jun-15 21:21N 49°27' E 001°04'0 0.0
2019-Jun-15 21:00N 49°27' E 001°04'0 0.0
2019-Jun-15 20:27N 49°27' E 001°04'0 0.0
2019-Jun-15 19:51N 49°27' E 001°04'0 0.0
2019-Jun-15 19:30N 49°27' E 001°04'0 0.0
2019-Jun-15 19:00N 49°27' E 001°04'0 0.0
2019-Jun-15 18:18N 49°27' E 001°04'0 0.0
2019-Jun-15 18:00N 49°27' E 001°04'0 0.0
2019-Jun-15 17:30N 49°27' E 001°04'0 0.0
2019-Jun-15 17:00N 49°27' E 001°04'0 0.0
2019-Jun-15 16:24N 49°27' E 001°04'0 0.0
2019-Jun-15 16:00N 49°27' E 001°04'0 0.0
2019-Jun-15 15:30N 49°27' E 001°04'0 0.0
2019-Jun-15 14:57N 49°27' E 001°04'0 0.0
2019-Jun-15 14:27N 49°27' E 001°04'0 0.0
2019-Jun-15 14:00N 49°27' E 001°04'0 0.0
2019-Jun-15 13:27N 49°27' E 001°04'0 0.0
2019-Jun-15 12:54N 49°27' E 001°04'0 0.0
2019-Jun-15 12:30N 49°27' E 001°04'0 0.0
2019-Jun-15 11:51N 49°27' E 001°04'0 0.0
2019-Jun-15 11:21N 49°27' E 001°04'0 0.0
2019-Jun-15 11:00N 49°27' E 001°04'0 0.0
2019-Jun-15 10:30N 49°27' E 001°04'0 0.0
2019-Jun-15 10:00N 49°27' E 001°04'0 0.0
2019-Jun-15 09:30N 49°27' E 001°04'0 0.0
2019-Jun-15 09:00N 49°27' E 001°04'0 0.0
2019-Jun-15 08:30N 49°27' E 001°04'0 0.0
2019-Jun-15 08:00N 49°27' E 001°04'0 0.0
2019-Jun-15 07:24N 49°27' E 001°04'0 0.0
2019-Jun-15 07:00N 49°27' E 001°04'0 0.0
2019-Jun-15 06:30N 49°27' E 001°04'0 0.0
2019-Jun-15 06:00N 49°27' E 001°04'0 0.0
2019-Jun-15 05:27N 49°27' E 001°04'0 0.0
2019-Jun-15 04:57N 49°27' E 001°04'0 0.0
2019-Jun-15 04:24N 49°27' E 001°04'0 0.0
2019-Jun-15 04:00N 49°27' E 001°04'0 0.0
2019-Jun-15 03:18N 49°27' E 001°04'0 0.0
2019-Jun-15 02:54N 49°27' E 001°04'0 0.0
2019-Jun-15 02:27N 49°27' E 001°04'0 0.0
2019-Jun-15 02:00N 49°27' E 001°04'0 0.0
2019-Jun-15 01:18N 49°27' E 001°04'0 0.0
2019-Jun-15 00:54N 49°27' E 001°04'0 0.0
2019-Jun-15 00:27N 49°27' E 001°04'0 0.0
2019-Jun-14 23:54N 49°27' E 001°04'0 0.0
2019-Jun-14 23:30N 49°27' E 001°04'0 0.0
2019-Jun-14 22:54N 49°27' E 001°04'0 0.0
2019-Jun-14 22:30N 49°27' E 001°04'0 0.0
2019-Jun-14 22:00N 49°27' E 001°04'0 0.0
2019-Jun-14 21:21N 49°27' E 001°04'0 0.0
2019-Jun-14 21:00N 49°27' E 001°04'0 0.0
2019-Jun-14 20:30N 49°27' E 001°04'0 0.0
2019-Jun-14 19:48N 49°27' E 001°04'0 0.0
2019-Jun-14 19:18N 49°27' E 001°04'0 0.0
2019-Jun-14 19:00N 49°27' E 001°04'0 0.0
2019-Jun-14 18:30N 49°27' E 001°04'0 0.0
2019-Jun-14 17:39N 49°27' E 001°04'0 0.0
2019-Jun-14 17:30N 49°27' E 001°04'0 0.0
2019-Jun-14 17:00N 49°27' E 001°04'0 0.0
2019-Jun-14 16:30N 49°27' E 001°04'0 0.0
2019-Jun-14 15:57N 49°27' E 001°04'0 0.0
2019-Jun-14 15:27N 49°27' E 001°04'0 0.0
2019-Jun-14 15:00N 49°27' E 001°04'0 0.0
2019-Jun-14 14:30N 49°27' E 001°04'0 0.0
2019-Jun-14 14:00N 49°27' E 001°04'0 0.0
2019-Jun-14 13:30N 49°27' E 001°04'0 0.0
2019-Jun-14 12:57N 49°27' E 001°04'0 0.0
2019-Jun-14 12:24N 49°27' E 001°04'0 0.0
2019-Jun-14 11:51N 49°27' E 001°04'0 0.0
2019-Jun-14 11:21N 49°27' E 001°04'0 0.0
2019-Jun-14 10:42N 49°27' E 001°04'0 0.0
2019-Jun-14 10:30N 49°27' E 001°04'0 0.0
2019-Jun-14 09:57N 49°27' E 001°04'0 0.0
2019-Jun-14 09:30N 49°27' E 001°04'0 0.0
2019-Jun-14 08:57N 49°27' E 001°04'0 0.0
2019-Jun-14 08:27N 49°27' E 001°04'0 0.0
2019-Jun-14 07:57N 49°27' E 001°04'0 0.0
2019-Jun-14 07:27N 49°27' E 001°04'0 0.0
2019-Jun-14 06:57N 49°27' E 001°04'0 0.0
2019-Jun-14 06:30N 49°27' E 001°04'0 0.0
2019-Jun-14 06:00N 49°27' E 001°04'0 0.0
2019-Jun-14 05:21N 49°27' E 001°04'0 0.0
2019-Jun-14 05:00N 49°27' E 001°04'0 0.0
2019-Jun-14 04:27N 49°27' E 001°04'0 0.0
2019-Jun-14 03:42N 49°27' E 001°04'0 0.0
2019-Jun-14 03:24N 49°27' E 001°04'0 0.0
2019-Jun-14 03:00N 49°27' E 001°04'0 0.0
2019-Jun-14 02:24N 49°27' E 001°04'0 0.0
2019-Jun-14 01:57N 49°27' E 001°04'0 0.0
2019-Jun-14 01:30N 49°27' E 001°04'0 0.0
2019-Jun-14 01:00N 49°27' E 001°04'0 0.0
2019-Jun-14 00:30N 49°27' E 001°04'0 0.0
2019-Jun-13 23:45N 49°27' E 001°04'0 0.0
2019-Jun-13 23:30N 49°27' E 001°04'0 0.0
2019-Jun-13 23:00N 49°27' E 001°04'0 0.0
2019-Jun-13 22:30N 49°27' E 001°04'0 0.0
2019-Jun-13 22:00N 49°27' E 001°04'0 0.0
2019-Jun-13 21:30N 49°27' E 001°04'0 0.0
2019-Jun-13 20:57N 49°27' E 001°04'0 0.0
2019-Jun-13 20:30N 49°27' E 001°04'0 0.0
2019-Jun-13 19:48N 49°27' E 001°04'0 0.0
2019-Jun-13 19:12N 49°27' E 001°04'0 0.0
2019-Jun-13 18:57N 49°27' E 001°04'0 0.0
2019-Jun-13 18:30N 49°27' E 001°04'0 0.0
2019-Jun-13 17:54N 49°27' E 001°04'0 0.0
2019-Jun-13 17:30N 49°27' E 001°04'0 0.0
2019-Jun-13 17:00N 49°27' E 001°04'0 0.0
2019-Jun-13 16:30N 49°27' E 001°04'0 0.0
2019-Jun-13 15:45N 49°27' E 001°04'0 0.0
2019-Jun-13 15:30N 49°27' E 001°04'0 0.0
2019-Jun-13 15:00N 49°27' E 001°04'0 0.0
2019-Jun-13 14:30N 49°27' E 001°04'0 0.0
2019-Jun-13 14:00N 49°27' E 001°04'0 0.0
2019-Jun-13 13:30N 49°27' E 001°04'0 0.0
2019-Jun-13 12:57N 49°27' E 001°04'0 0.0
2019-Jun-13 12:24N 49°27' E 001°04'0 0.0
2019-Jun-13 11:54N 49°27' E 001°04'0 0.0
2019-Jun-13 11:18N 49°27' E 001°04'0 0.0
2019-Jun-13 10:57N 49°27' E 001°04'0 0.0
2019-Jun-13 10:24N 49°27' E 001°04'0 0.0
2019-Jun-13 10:00N 49°27' E 001°04'0 0.0
2019-Jun-13 09:27N 49°27' E 001°04'0 0.0
2019-Jun-13 09:00N 49°27' E 001°04'0 0.0
2019-Jun-13 08:30N 49°27' E 001°04'0 0.0
2019-Jun-13 07:57N 49°27' E 001°04'0 0.0
2019-Jun-13 07:27N 49°27' E 001°04'0 0.0
2019-Jun-13 06:51N 49°27' E 001°04'0 0.0
2019-Jun-13 06:27N 49°27' E 001°04'0 0.0
2019-Jun-13 06:00N 49°27' E 001°04'0 0.0
2019-Jun-13 05:30N 49°27' E 001°04'0 0.0
2019-Jun-13 05:00N 49°27' E 001°04'0 0.0
2019-Jun-13 04:30N 49°27' E 001°04'0 0.0
2019-Jun-13 04:00N 49°27' E 001°04'0 0.0
2019-Jun-13 03:30N 49°27' E 001°04'0 0.0
2019-Jun-13 02:51N 49°27' E 001°04'0 0.0
2019-Jun-13 02:18N 49°27' E 001°04'0 0.0
2019-Jun-13 01:57N 49°27' E 001°04'0 0.0
2019-Jun-13 01:09N 49°27' E 001°04'0 0.0
2019-Jun-13 00:57N 49°27' E 001°04'0 0.0
2019-Jun-13 00:24N 49°27' E 001°04'0 0.0
2019-Jun-12 23:54N 49°27' E 001°04'0 0.0
2019-Jun-12 23:27N 49°27' E 001°04'0 0.0
2019-Jun-12 22:54N 49°27' E 001°04'0 0.0
2019-Jun-12 22:27N 49°27' E 001°04'0 0.0
2019-Jun-12 22:00N 49°27' E 001°04'0 0.0
2019-Jun-12 21:24N 49°27' E 001°04'0 0.0
2019-Jun-12 20:57N 49°27' E 001°04'0 0.0
2019-Jun-12 20:30N 49°27' E 001°04'0 0.0
2019-Jun-12 19:48N 49°27' E 001°04'0 0.0
2019-Jun-12 19:24N 49°27' E 001°04'0 0.0
2019-Jun-12 18:51N 49°27' E 001°04'0 0.0
2019-Jun-12 18:21N 49°27' E 001°04'0 0.0
2019-Jun-12 18:00N 49°27' E 001°04'0 0.0
2019-Jun-12 17:30N 49°27' E 001°04'0 0.0
2019-Jun-12 17:00N 49°27' E 001°04'0 0.0
2019-Jun-12 16:30N 49°27' E 001°04'0 0.0
2019-Jun-12 16:00N 49°27' E 001°04'0 0.0
2019-Jun-12 15:24N 49°27' E 001°04'0 0.0
2019-Jun-12 14:54N 49°27' E 001°04'0 0.0
2019-Jun-12 14:27N 49°27' E 001°04'0 0.0
2019-Jun-12 13:51N 49°27' E 001°04'0 0.0
2019-Jun-12 13:30N 49°27' E 001°04'0 0.0
2019-Jun-12 12:54N 49°27' E 001°04'0 0.0
2019-Jun-12 12:21N 49°27' E 001°04'0 0.0
2019-Jun-12 11:57N 49°27' E 001°04'0 0.0
2019-Jun-12 11:06N 49°27' E 001°04'0 0.0
2019-Jun-12 11:00N 49°27' E 001°04'0 0.0
2019-Jun-12 10:30N 49°27' E 001°04'0 0.0
2019-Jun-12 09:45N 49°27' E 001°04'0 0.0
2019-Jun-12 09:24N 49°27' E 001°04'0 0.0
2019-Jun-12 08:45N 49°27' E 001°04'0 0.0
2019-Jun-12 08:27N 49°27' E 001°04'0 0.0
2019-Jun-12 07:57N 49°27' E 001°04'0 0.0
2019-Jun-12 07:30N 49°27' E 001°04'0 0.0
2019-Jun-12 06:57N 49°27' E 001°04'0 0.0
2019-Jun-12 06:27N 49°27' E 001°04'0 0.0
2019-Jun-12 05:57N 49°27' E 001°04'0 0.0
2019-Jun-12 05:30N 49°27' E 001°04'0 0.0
2019-Jun-12 05:00N 49°27' E 001°04'0 0.0
2019-Jun-12 04:21N 49°27' E 001°04'0 0.0
2019-Jun-12 03:54N 49°27' E 001°04'0 0.0
2019-Jun-12 03:24N 49°27' E 001°04'0 0.0
2019-Jun-12 03:00N 49°27' E 001°04'0 0.0
2019-Jun-12 01:51N 49°27' E 001°04'0 0.0
2019-Jun-12 01:27N 49°27' E 001°04'0 0.0
2019-Jun-12 00:39N 49°27' E 001°04'0 0.0
2019-Jun-12 00:27N 49°27' E 001°04'0 0.0
2019-Jun-11 23:57N 49°27' E 001°04'0 0.0
2019-Jun-11 23:27N 49°27' E 001°04'0 0.0
2019-Jun-11 22:39N 49°27' E 001°04'0 0.0
2019-Jun-11 22:27N 49°27' E 001°04'0 0.0
2019-Jun-11 22:00N 49°27' E 001°04'0 0.0
2019-Jun-11 21:30N 49°27' E 001°04'0 0.0
2019-Jun-11 21:00N 49°27' E 001°04'0 0.0
2019-Jun-11 20:09N 49°27' E 001°04'0 0.0
2019-Jun-11 20:00N 49°27' E 001°04'0 0.0
2019-Jun-11 19:30N 49°27' E 001°04'0 0.0
2019-Jun-11 18:54N 49°27' E 001°04'0 0.0
2019-Jun-11 18:30N 49°27' E 001°04'0 0.0
2019-Jun-11 18:00N 49°27' E 001°04'0 0.0
2019-Jun-11 17:15N 49°27' E 001°04'0 0.0
2019-Jun-11 16:45N 49°27' E 001°04'0 0.0
2019-Jun-11 16:30N 49°27' E 001°04'0 0.0
2019-Jun-11 16:00N 49°27' E 001°04'0 0.0
2019-Jun-11 15:30N 49°27' E 001°04'0 0.0
2019-Jun-11 14:57N 49°27' E 001°04'0 0.0
2019-Jun-11 14:30N 49°27' E 001°04'0 0.0
2019-Jun-11 13:57N 49°27' E 001°04'0 0.0
2019-Jun-11 13:27N 49°27' E 001°04'0 0.0
2019-Jun-11 12:57N 49°27' E 001°04'0 0.0
2019-Jun-11 12:30N 49°27' E 001°04'0 0.0
2019-Jun-11 11:45N 49°27' E 001°04'0 0.0
2019-Jun-11 11:30N 49°27' E 001°04'0 0.0
2019-Jun-11 11:00N 49°27' E 001°04'0 0.0
2019-Jun-11 10:30N 49°27' E 001°04'0 0.0
2019-Jun-11 09:57N 49°27' E 001°04'0 0.0
2019-Jun-11 09:30N 49°27' E 001°04'0 0.0
2019-Jun-11 08:57N 49°27' E 001°04'0 0.0
2019-Jun-11 08:15N 49°27' E 001°04'0 0.0
2019-Jun-11 07:51N 49°27' E 001°04'0 0.0
2019-Jun-11 07:30N 49°27' E 001°04'0 0.0
2019-Jun-11 06:57N 49°27' E 001°04'0 0.0
2019-Jun-11 06:30N 49°27' E 001°04'0 0.0
2019-Jun-11 05:57N 49°27' E 001°04'0 0.0
2019-Jun-11 04:54N 49°27' E 001°04'0 0.0
2019-Jun-11 04:30N 49°27' E 001°04'0 0.0
2019-Jun-11 03:39N 49°27' E 001°04'0 0.0
2019-Jun-11 03:30N 49°27' E 001°04'0 0.0
2019-Jun-11 02:54N 49°27' E 001°04'0 0.0
2019-Jun-11 02:18N 49°27' E 001°04'0 0.0
2019-Jun-11 01:57N 49°27' E 001°04'0 0.0
2019-Jun-11 01:30N 49°27' E 001°04'0 0.0
2019-Jun-11 01:00N 49°27' E 001°04'0 0.0
2019-Jun-11 00:27N 49°27' E 001°04'0 0.0
2019-Jun-10 23:54N 49°27' E 001°04'0 0.0
2019-Jun-10 23:30N 49°27' E 001°04'0 0.0
2019-Jun-10 23:00N 49°27' E 001°04'0 0.0
2019-Jun-10 22:21N 49°27' E 001°04'0 0.0
2019-Jun-10 21:45N 49°27' E 001°04'0 0.0
2019-Jun-10 21:27N 49°27' E 001°04'0 0.0
2019-Jun-10 20:54N 49°27' E 001°04'0 0.0
2019-Jun-10 20:27N 49°27' E 001°04'0 0.0
2019-Jun-10 19:57N 49°27' E 001°04'0 0.0
2019-Jun-10 19:24N 49°27' E 001°04'0 0.0
2019-Jun-10 18:57N 49°27' E 001°04'0 0.0
2019-Jun-10 18:30N 49°27' E 001°04'0 0.0
2019-Jun-10 17:57N 49°27' E 001°04'0 0.0
2019-Jun-10 17:21N 49°27' E 001°04'0 0.0
2019-Jun-10 16:54N 49°27' E 001°04'0 0.0
2019-Jun-10 16:30N 49°27' E 001°04'0 0.0
2019-Jun-10 15:45N 49°27' E 001°04'0 0.0
2019-Jun-10 15:21N 49°27' E 001°04'0 0.0
2019-Jun-10 15:00N 49°27' E 001°04'0 0.0
2019-Jun-10 14:30N 49°27' E 001°04'0 0.0
2019-Jun-10 14:00N 49°27' E 001°04'0 0.0
2019-Jun-10 13:18N 49°27' E 001°04'0 0.0
2019-Jun-10 13:00N 49°27' E 001°04'0 0.0
2019-Jun-10 12:30N 49°27' E 001°04'0 0.0
2019-Jun-10 12:00N 49°27' E 001°04'0 0.0
2019-Jun-10 11:27N 49°27' E 001°04'0 0.0
2019-Jun-10 11:00N 49°27' E 001°04'0 0.0
2019-Jun-10 10:30N 49°27' E 001°04'0 0.0
2019-Jun-10 09:54N 49°27' E 001°04'0 0.0
2019-Jun-10 09:27N 49°27' E 001°04'0 0.0
2019-Jun-10 08:57N 49°27' E 001°04'0 0.0
2019-Jun-10 08:12N 49°27' E 001°04'0 0.0
2019-Jun-10 08:00N 49°27' E 001°04'0 0.0
2019-Jun-10 07:15N 49°27' E 001°04'0 0.0
2019-Jun-10 06:57N 49°27' E 001°04'0 0.0
2019-Jun-10 06:21N 49°27' E 001°04'0 0.0
2019-Jun-10 06:00N 49°27' E 001°04'0 0.0
2019-Jun-10 05:30N 49°27' E 001°04'0 0.0
2019-Jun-10 05:00N 49°27' E 001°04'0 0.0
2019-Jun-10 04:30N 49°27' E 001°04'0 0.0
2019-Jun-10 04:00N 49°27' E 001°04'0 0.0
2019-Jun-10 03:30N 49°27' E 001°04'0 0.0
2019-Jun-10 03:00N 49°27' E 001°04'0 0.0
2019-Jun-10 02:30N 49°27' E 001°04'0 0.0
2019-Jun-10 02:00N 49°27' E 001°04'0 0.0
2019-Jun-10 01:24N 49°27' E 001°04'0 0.0
2019-Jun-10 00:51N 49°27' E 001°04'0 0.0
2019-Jun-10 00:12N 49°27' E 001°04'0 0.0
2019-Jun-09 23:54N 49°27' E 001°04'0 0.0
2019-Jun-09 23:30N 49°27' E 001°04'0 0.0
2019-Jun-09 23:00N 49°27' E 001°04'0 0.0
2019-Jun-09 22:24N 49°27' E 001°04'0 0.0
2019-Jun-09 22:00N 49°27' E 001°04'0 0.0
2019-Jun-09 21:30N 49°27' E 001°04'0 0.0
2019-Jun-09 20:48N 49°27' E 001°04'0 0.0
2019-Jun-09 20:18N 49°27' E 001°04'0 0.0
2019-Jun-09 19:54N 49°27' E 001°04'0 0.0
2019-Jun-09 19:30N 49°27' E 001°04'0 0.0
2019-Jun-09 19:00N 49°27' E 001°04'0 0.0
2019-Jun-09 18:24N 49°27' E 001°04'0 0.0
2019-Jun-09 18:00N 49°27' E 001°04'0 0.0
2019-Jun-09 17:30N 49°27' E 001°04'0 0.0
2019-Jun-09 16:51N 49°27' E 001°04'0 0.0
2019-Jun-09 16:24N 49°27' E 001°04'0 0.0
2019-Jun-09 16:00N 49°27' E 001°04'0 0.0
2019-Jun-09 15:30N 49°27' E 001°04'0 0.0
2019-Jun-09 14:51N 49°27' E 001°04'0 0.0
2019-Jun-09 14:30N 49°27' E 001°04'0 0.0
2019-Jun-09 13:51N 49°27' E 001°04'0 0.0
2019-Jun-09 13:30N 49°27' E 001°04'0 0.0
2019-Jun-09 13:00N 49°27' E 001°04'0 0.0
2019-Jun-09 12:24N 49°27' E 001°04'0 0.0
2019-Jun-09 11:54N 49°27' E 001°04'0 0.0
2019-Jun-09 11:30N 49°27' E 001°04'0 0.0
2019-Jun-09 10:45N 49°27' E 001°04'0 0.0
2019-Jun-09 10:30N 49°27' E 001°04'0 0.0
2019-Jun-09 09:54N 49°27' E 001°04'0 0.0
2019-Jun-09 09:30N 49°27' E 001°04'0 0.0
2019-Jun-09 09:00N 49°27' E 001°04'0 0.0
2019-Jun-09 08:30N 49°27' E 001°04'0 0.0
2019-Jun-09 07:57N 49°27' E 001°04'0 0.0
2019-Jun-09 07:30N 49°27' E 001°04'0 0.0
2019-Jun-09 07:00N 49°27' E 001°04'0 0.0
2019-Jun-09 06:18N 49°27' E 001°04'0 0.0
2019-Jun-09 06:00N 49°27' E 001°04'0 0.0
2019-Jun-09 05:30N 49°27' E 001°04'0 0.0
2019-Jun-09 05:00N 49°27' E 001°04'0 0.0
2019-Jun-09 03:54N 49°27' E 001°04'0 0.0
2019-Jun-09 03:27N 49°27' E 001°04'0 0.0
2019-Jun-09 02:54N 49°27' E 001°04'0 0.0
2019-Jun-09 02:30N 49°27' E 001°04'0 0.0
2019-Jun-09 02:00N 49°27' E 001°04'0 0.0
2019-Jun-09 01:30N 49°27' E 001°04'0 0.0
2019-Jun-09 01:00N 49°27' E 001°04'0 0.0
2019-Jun-09 00:24N 49°27' E 001°04'0 0.0
2019-Jun-08 23:54N 49°27' E 001°04'0 0.0
2019-Jun-08 23:30N 49°27' E 001°04'0 0.0
2019-Jun-08 23:00N 49°27' E 001°04'0 0.0
2019-Jun-08 22:30N 49°27' E 001°04'0 0.0
2019-Jun-08 22:00N 49°27' E 001°04'0 0.0
2019-Jun-08 21:27N 49°27' E 001°04'0 0.0
2019-Jun-08 21:00N 49°27' E 001°04'0 0.0
2019-Jun-08 20:30N 49°27' E 001°04'0 0.0
2019-Jun-08 19:57N 49°27' E 001°04'0 0.0
2019-Jun-08 19:30N 49°27' E 001°04'0 0.0
2019-Jun-08 18:51N 49°27' E 001°04'0 0.0
2019-Jun-08 18:18N 49°27' E 001°04'0 0.0
2019-Jun-08 17:57N 49°27' E 001°04'0 0.0
2019-Jun-08 17:30N 49°27' E 001°04'0 0.0
2019-Jun-08 17:00N 49°27' E 001°04'0 0.0
2019-Jun-08 16:30N 49°27' E 001°04'0 0.0
2019-Jun-08 16:00N 49°27' E 001°04'0 0.0
2019-Jun-08 15:30N 49°27' E 001°04'0 0.0
2019-Jun-08 15:00N 49°27' E 001°04'0 0.0
2019-Jun-08 14:30N 49°27' E 001°04'0 0.0
2019-Jun-08 14:00N 49°27' E 001°04'0 0.0
2019-Jun-08 13:30N 49°27' E 001°04'0 0.0
2019-Jun-08 13:00N 49°27' E 001°04'0 0.0
2019-Jun-08 12:30N 49°27' E 001°04'0 0.0
2019-Jun-08 12:00N 49°27' E 001°04'0 0.0
2019-Jun-08 11:30N 49°27' E 001°04'0 0.0
2019-Jun-08 11:00N 49°27' E 001°04'0 0.0
2019-Jun-08 10:24N 49°27' E 001°04'0 0.0
2019-Jun-08 09:54N 49°27' E 001°04'0 0.0
2019-Jun-08 09:30N 49°27' E 001°04'0 0.0
2019-Jun-08 09:00N 49°27' E 001°04'0 0.0
2019-Jun-08 08:30N 49°27' E 001°04'0 0.0
2019-Jun-08 08:00N 49°27' E 001°04'0 0.0
2019-Jun-08 07:30N 49°27' E 001°04'0 0.0
2019-Jun-08 07:00N 49°27' E 001°04'0 0.0
2019-Jun-08 06:30N 49°27' E 001°04'0 0.0
2019-Jun-08 06:00N 49°27' E 001°04'0 0.0
2019-Jun-08 05:24N 49°27' E 001°04'0 0.0
2019-Jun-08 04:54N 49°27' E 001°04'0 0.0
2019-Jun-08 04:18N 49°27' E 001°04'0 0.0
2019-Jun-08 03:51N 49°27' E 001°04'0 0.0
2019-Jun-08 03:30N 49°27' E 001°04'0 0.0
2019-Jun-08 02:57N 49°27' E 001°04'0 0.0
2019-Jun-08 02:30N 49°27' E 001°04'0 0.0
2019-Jun-08 01:54N 49°27' E 001°04'0 0.0
2019-Jun-08 01:30N 49°27' E 001°04'0 0.0
2019-Jun-08 01:00N 49°27' E 001°04'0 0.0
2019-Jun-08 00:24N 49°27' E 001°04'0 0.0
2019-Jun-07 23:57N 49°27' E 001°04'0 0.0
2019-Jun-07 23:27N 49°27' E 001°04'0 0.0
2019-Jun-07 22:54N 49°27' E 001°04'0 0.0
2019-Jun-07 22:30N 49°27' E 001°04'0 0.0
2019-Jun-07 22:00N 49°27' E 001°04'0 0.0
2019-Jun-07 21:30N 49°27' E 001°04'0 0.0
2019-Jun-07 21:00N 49°27' E 001°04'0 0.0
2019-Jun-07 20:30N 49°27' E 001°04'0 0.0
2019-Jun-07 19:54N 49°27' E 001°04'0 0.0
2019-Jun-07 19:24N 49°27' E 001°04'0 0.0
2019-Jun-07 19:00N 49°27' E 001°04'0 0.0
2019-Jun-07 18:24N 49°27' E 001°04'0 0.0
2019-Jun-07 18:00N 49°27' E 001°04'0 0.0
2019-Jun-07 17:30N 49°27' E 001°04'0 0.0
2019-Jun-07 16:48N 49°27' E 001°04'0 0.0
2019-Jun-07 16:03N 49°27' E 001°04'0 0.0
2019-Jun-07 16:00N 49°27' E 001°04'0 0.0
2019-Jun-07 15:30N 49°27' E 001°04'0 0.0
2019-Jun-07 14:57N 49°27' E 001°04'0 0.0
2019-Jun-07 14:24N 49°27' E 001°04'0 0.0
2019-Jun-07 14:00N 49°27' E 001°04'0 0.0
2019-Jun-07 13:30N 49°27' E 001°04'0 0.0
2019-Jun-07 12:57N 49°27' E 001°04'0 0.0
2019-Jun-07 12:15N 49°27' E 001°04'0 0.0
2019-Jun-07 11:51N 49°27' E 001°04'0 0.0
2019-Jun-07 11:27N 49°27' E 001°04'0 0.0
2019-Jun-07 11:00N 49°27' E 001°04'0 0.0
2019-Jun-07 10:24N 49°27' E 001°04'0 0.0
2019-Jun-07 09:57N 49°27' E 001°04'0 0.0
2019-Jun-07 09:30N 49°27' E 001°04'0 0.0
2019-Jun-07 09:00N 49°27' E 001°04'0 0.0
2019-Jun-07 08:30N 49°27' E 001°04'0 0.0
2019-Jun-07 07:51N 49°27' E 001°04'0 0.0
2019-Jun-07 07:27N 49°27' E 001°04'0 0.0
2019-Jun-07 07:00N 49°27' E 001°04'0 0.0
2019-Jun-07 06:24N 49°27' E 001°04'0 0.0
2019-Jun-07 06:00N 49°27' E 001°04'0 0.0
2019-Jun-07 05:27N 49°27' E 001°04'0 0.0
2019-Jun-07 05:00N 49°27' E 001°04'0 0.0
2019-Jun-07 04:30N 49°27' E 001°04'0 0.0
2019-Jun-07 03:54N 49°27' E 001°04'0 0.0
2019-Jun-07 03:30N 49°27' E 001°04'0 0.0
2019-Jun-07 02:39N 49°27' E 001°04'0 0.0
2019-Jun-07 02:30N 49°27' E 001°04'0 0.0
2019-Jun-07 02:00N 49°27' E 001°04'1 1.7
2019-Jun-07 01:30N 49°27' E 001°03'0 0.0
2019-Jun-07 00:54N 49°27' E 001°03'0 0.0
2019-Jun-07 00:27N 49°27' E 001°03'0 0.0
2019-Jun-07 00:00N 49°27' E 001°03'0 0.0
2019-Jun-06 23:24N 49°27' E 001°03'0 0.0
2019-Jun-06 22:57N 49°27' E 001°03'  
Track history (hours):
 
Tides and Currents Weather Stations Pressure Air Temp Water Temp Dewpoint Dewpoint Depression Visibility Wind Speed Wind Dir Waves Ship Positions

Oosterschelde (Netherlands)

Ship's website: http://www.oosterschelde.nl/indexuk.htm

Last reported at 2019-Jun-16 23:30 UTC. Time now 2019-Jun-17 19:27 UTC.
Position N 49°27' W 000°05'.

Length 49 m; draft 2.9 m.

Type: Sailing vessel. MMSI: 246010985.

Date/timePositionNaut miles runAvg speedWind from/ knotsBaromVisibWave heightAir tempDewpointWater temp
2019-Jun-16 23:30N 49°27' W 000°05'3 6.4
2019-Jun-16 23:00N 49°27' W 000°00'3 5.8
2019-Jun-16 22:30N 49°26' E 000°04'3 6.1
2019-Jun-16 22:00N 49°26' E 000°09'3 6.1
2019-Jun-16 21:30N 49°26' E 000°14'3 5.6
2019-Jun-16 21:00N 49°26' E 000°18'3 5.4
2019-Jun-16 20:30N 49°27' E 000°22'2 4.6
2019-Jun-16 20:00N 49°27' E 000°25'2 4.0
2019-Jun-16 19:30N 49°28' E 000°28'1 2.6
2019-Jun-16 19:00N 49°29' E 000°29'0 0.0
2019-Jun-16 18:30N 49°29' E 000°29'1 2.3
2019-Jun-16 18:00N 49°29' E 000°31'5 9.1
2019-Jun-16 17:30N 49°26' E 000°36'4 8.9
2019-Jun-16 17:00N 49°29' E 000°40'4 7.4
2019-Jun-16 16:30N 49°31' E 000°45'4 8.4
2019-Jun-16 16:00N 49°28' E 000°49'4 8.6
2019-Jun-16 15:30N 49°24' E 000°50'3 6.4
2019-Jun-16 15:00N 49°27' E 000°51'3 6.6
2019-Jun-16 14:30N 49°29' E 000°55'4 8.4
2019-Jun-16 14:00N 49°25' E 000°56'4 7.4
2019-Jun-16 13:30N 49°21' E 000°56'3 5.4
2019-Jun-16 13:00N 49°22' E 000°60'3 5.2
2019-Jun-16 12:30N 49°25' E 001°01'2 4.7
2019-Jun-16 12:00N 49°26' E 001°03'1 1.1
2019-Jun-16 11:24N 49°27' E 001°04'0 0.0
2019-Jun-16 11:00N 49°27' E 001°04'0 0.0
2019-Jun-16 10:27N 49°27' E 001°04'0 0.0
2019-Jun-16 09:57N 49°27' E 001°04'0 0.0
2019-Jun-16 08:48N 49°27' E 001°04'0 0.0
2019-Jun-16 08:30N 49°27' E 001°04'0 0.0
2019-Jun-16 08:00N 49°27' E 001°04'0 0.0
2019-Jun-16 07:12N 49°27' E 001°04'0 0.0
2019-Jun-16 06:57N 49°27' E 001°04'0 0.0
2019-Jun-16 06:27N 49°27' E 001°04'0 0.0
2019-Jun-16 05:57N 49°27' E 001°04'0 0.0
2019-Jun-16 05:30N 49°27' E 001°04'0 0.0
2019-Jun-16 05:00N 49°27' E 001°04'0 0.0
2019-Jun-16 04:30N 49°27' E 001°04'0 0.0
2019-Jun-16 03:51N 49°27' E 001°04'0 0.0
2019-Jun-16 03:18N 49°27' E 001°04'0 0.0
2019-Jun-16 02:54N 49°27' E 001°04'0 0.0
2019-Jun-16 02:30N 49°27' E 001°04'0 0.0
2019-Jun-16 01:57N 49°27' E 001°04'0 0.0
2019-Jun-16 01:27N 49°27' E 001°04'0 0.0
2019-Jun-16 00:48N 49°27' E 001°04'0 0.0
2019-Jun-16 00:30N 49°27' E 001°04'0 0.0
2019-Jun-15 23:54N 49°27' E 001°04'0 0.0
2019-Jun-15 23:12N 49°27' E 001°04'0 0.0
2019-Jun-15 22:54N 49°27' E 001°04'0 0.0
2019-Jun-15 22:30N 49°27' E 001°04'0 0.0
2019-Jun-15 22:00N 49°27' E 001°04'0 0.0
2019-Jun-15 21:21N 49°27' E 001°04'0 0.0
2019-Jun-15 21:00N 49°27' E 001°04'0 0.0
2019-Jun-15 20:27N 49°27' E 001°04'0 0.0
2019-Jun-15 19:51N 49°27' E 001°04'0 0.0
2019-Jun-15 19:30N 49°27' E 001°04'0 0.0
2019-Jun-15 19:00N 49°27' E 001°04'0 0.0
2019-Jun-15 18:18N 49°27' E 001°04'0 0.0
2019-Jun-15 18:00N 49°27' E 001°04'0 0.0
2019-Jun-15 17:30N 49°27' E 001°04'0 0.0
2019-Jun-15 17:00N 49°27' E 001°04'0 0.0
2019-Jun-15 16:24N 49°27' E 001°04'0 0.0
2019-Jun-15 16:00N 49°27' E 001°04'0 0.0
2019-Jun-15 15:30N 49°27' E 001°04'0 0.0
2019-Jun-15 14:57N 49°27' E 001°04'0 0.0
2019-Jun-15 14:27N 49°27' E 001°04'0 0.0
2019-Jun-15 14:00N 49°27' E 001°04'0 0.0
2019-Jun-15 13:27N 49°27' E 001°04'0 0.0
2019-Jun-15 12:54N 49°27' E 001°04'0 0.0
2019-Jun-15 12:30N 49°27' E 001°04'0 0.0
2019-Jun-15 11:51N 49°27' E 001°04'0 0.0
2019-Jun-15 11:21N 49°27' E 001°04'0 0.0
2019-Jun-15 11:00N 49°27' E 001°04'0 0.0
2019-Jun-15 10:30N 49°27' E 001°04'0 0.0
2019-Jun-15 10:00N 49°27' E 001°04'0 0.0
2019-Jun-15 09:30N 49°27' E 001°04'0 0.0
2019-Jun-15 09:00N 49°27' E 001°04'0 0.0
2019-Jun-15 08:30N 49°27' E 001°04'0 0.0
2019-Jun-15 08:00N 49°27' E 001°04'0 0.0
2019-Jun-15 07:24N 49°27' E 001°04'0 0.0
2019-Jun-15 07:00N 49°27' E 001°04'0 0.0
2019-Jun-15 06:30N 49°27' E 001°04'0 0.0
2019-Jun-15 06:00N 49°27' E 001°04'0 0.0
2019-Jun-15 05:27N 49°27' E 001°04'0 0.0
2019-Jun-15 04:57N 49°27' E 001°04'0 0.0
2019-Jun-15 04:24N 49°27' E 001°04'0 0.0
2019-Jun-15 04:00N 49°27' E 001°04'0 0.0
2019-Jun-15 03:18N 49°27' E 001°04'0 0.0
2019-Jun-15 02:54N 49°27' E 001°04'0 0.0
2019-Jun-15 02:27N 49°27' E 001°04'0 0.0
2019-Jun-15 02:00N 49°27' E 001°04'0 0.0
2019-Jun-15 01:18N 49°27' E 001°04'0 0.0
2019-Jun-15 00:54N 49°27' E 001°04'0 0.0
2019-Jun-15 00:27N 49°27' E 001°04'0 0.0
2019-Jun-14 23:54N 49°27' E 001°04'0 0.0
2019-Jun-14 23:30N 49°27' E 001°04'0 0.0
2019-Jun-14 22:54N 49°27' E 001°04'0 0.0
2019-Jun-14 22:30N 49°27' E 001°04'0 0.0
2019-Jun-14 22:00N 49°27' E 001°04'0 0.0
2019-Jun-14 21:21N 49°27' E 001°04'0 0.0
2019-Jun-14 21:00N 49°27' E 001°04'0 0.0
2019-Jun-14 20:30N 49°27' E 001°04'0 0.0
2019-Jun-14 19:48N 49°27' E 001°04'0 0.0
2019-Jun-14 19:18N 49°27' E 001°04'0 0.0
2019-Jun-14 19:00N 49°27' E 001°04'0 0.0
2019-Jun-14 18:30N 49°27' E 001°04'0 0.0
2019-Jun-14 17:39N 49°27' E 001°04'0 0.0
2019-Jun-14 17:30N 49°27' E 001°04'0 0.0
2019-Jun-14 17:00N 49°27' E 001°04'0 0.0
2019-Jun-14 16:30N 49°27' E 001°04'0 0.0
2019-Jun-14 15:57N 49°27' E 001°04'0 0.0
2019-Jun-14 15:27N 49°27' E 001°04'0 0.0
2019-Jun-14 15:00N 49°27' E 001°04'0 0.0
2019-Jun-14 14:30N 49°27' E 001°04'0 0.0
2019-Jun-14 14:00N 49°27' E 001°04'0 0.0
2019-Jun-14 13:30N 49°27' E 001°04'0 0.0
2019-Jun-14 12:57N 49°27' E 001°04'0 0.0
2019-Jun-14 12:24N 49°27' E 001°04'0 0.0
2019-Jun-14 11:51N 49°27' E 001°04'0 0.0
2019-Jun-14 11:21N 49°27' E 001°04'0 0.0
2019-Jun-14 10:42N 49°27' E 001°04'0 0.0
2019-Jun-14 10:30N 49°27' E 001°04'0 0.0
2019-Jun-14 09:57N 49°27' E 001°04'0 0.0
2019-Jun-14 09:30N 49°27' E 001°04'0 0.0
2019-Jun-14 08:57N 49°27' E 001°04'0 0.0
2019-Jun-14 08:27N 49°27' E 001°04'0 0.0
2019-Jun-14 07:57N 49°27' E 001°04'0 0.0
2019-Jun-14 07:27N 49°27' E 001°04'0 0.0
2019-Jun-14 06:57N 49°27' E 001°04'0 0.0
2019-Jun-14 06:30N 49°27' E 001°04'0 0.0
2019-Jun-14 06:00N 49°27' E 001°04'0 0.0
2019-Jun-14 05:21N 49°27' E 001°04'0 0.0
2019-Jun-14 05:00N 49°27' E 001°04'0 0.0
2019-Jun-14 04:27N 49°27' E 001°04'0 0.0
2019-Jun-14 03:42N 49°27' E 001°04'0 0.0
2019-Jun-14 03:24N 49°27' E 001°04'0 0.0
2019-Jun-14 03:00N 49°27' E 001°04'0 0.0
2019-Jun-14 02:24N 49°27' E 001°04'0 0.0
2019-Jun-14 01:57N 49°27' E 001°04'0 0.0
2019-Jun-14 01:30N 49°27' E 001°04'0 0.0
2019-Jun-14 01:00N 49°27' E 001°04'0 0.0
2019-Jun-14 00:30N 49°27' E 001°04'0 0.0
2019-Jun-13 23:45N 49°27' E 001°04'0 0.0
2019-Jun-13 23:30N 49°27' E 001°04'0 0.0
2019-Jun-13 23:00N 49°27' E 001°04'0 0.0
2019-Jun-13 22:30N 49°27' E 001°04'0 0.0
2019-Jun-13 22:00N 49°27' E 001°04'0 0.0
2019-Jun-13 21:30N 49°27' E 001°04'0 0.0
2019-Jun-13 20:57N 49°27' E 001°04'0 0.0
2019-Jun-13 20:30N 49°27' E 001°04'0 0.0
2019-Jun-13 19:48N 49°27' E 001°04'0 0.0
2019-Jun-13 19:12N 49°27' E 001°04'0 0.0
2019-Jun-13 18:57N 49°27' E 001°04'0 0.0
2019-Jun-13 18:30N 49°27' E 001°04'0 0.0
2019-Jun-13 17:54N 49°27' E 001°04'0 0.0
2019-Jun-13 17:30N 49°27' E 001°04'0 0.0
2019-Jun-13 17:00N 49°27' E 001°04'0 0.0
2019-Jun-13 16:30N 49°27' E 001°04'0 0.0
2019-Jun-13 15:45N 49°27' E 001°04'0 0.0
2019-Jun-13 15:30N 49°27' E 001°04'0 0.0
2019-Jun-13 15:00N 49°27' E 001°04'0 0.0
2019-Jun-13 14:30N 49°27' E 001°04'0 0.0
2019-Jun-13 14:00N 49°27' E 001°04'0 0.0
2019-Jun-13 13:30N 49°27' E 001°04'0 0.0
2019-Jun-13 12:57N 49°27' E 001°04'0 0.0
2019-Jun-13 12:24N 49°27' E 001°04'0 0.0
2019-Jun-13 11:54N 49°27' E 001°04'0 0.0
2019-Jun-13 11:18N 49°27' E 001°04'0 0.0
2019-Jun-13 10:57N 49°27' E 001°04'0 0.0
2019-Jun-13 10:24N 49°27' E 001°04'0 0.0
2019-Jun-13 10:00N 49°27' E 001°04'0 0.0
2019-Jun-13 09:27N 49°27' E 001°04'0 0.0
2019-Jun-13 09:00N 49°27' E 001°04'0 0.0
2019-Jun-13 08:30N 49°27' E 001°04'0 0.0
2019-Jun-13 07:57N 49°27' E 001°04'0 0.0
2019-Jun-13 07:27N 49°27' E 001°04'0 0.0
2019-Jun-13 06:51N 49°27' E 001°04'0 0.0
2019-Jun-13 06:27N 49°27' E 001°04'0 0.0
2019-Jun-13 06:00N 49°27' E 001°04'0 0.0
2019-Jun-13 05:30N 49°27' E 001°04'0 0.0
2019-Jun-13 05:00N 49°27' E 001°04'0 0.0
2019-Jun-13 04:30N 49°27' E 001°04'0 0.0
2019-Jun-13 04:00N 49°27' E 001°04'0 0.0
2019-Jun-13 03:30N 49°27' E 001°04'0 0.0
2019-Jun-13 02:51N 49°27' E 001°04'0 0.0
2019-Jun-13 02:18N 49°27' E 001°04'0 0.0
2019-Jun-13 01:57N 49°27' E 001°04'0 0.0
2019-Jun-13 01:09N 49°27' E 001°04'0 0.0
2019-Jun-13 00:57N 49°27' E 001°04'0 0.0
2019-Jun-13 00:24N 49°27' E 001°04'0 0.0
2019-Jun-12 23:54N 49°27' E 001°04'0 0.0
2019-Jun-12 23:27N 49°27' E 001°04'0 0.0
2019-Jun-12 22:54N 49°27' E 001°04'0 0.0
2019-Jun-12 22:27N 49°27' E 001°04'0 0.0
2019-Jun-12 22:00N 49°27' E 001°04'0 0.0
2019-Jun-12 21:24N 49°27' E 001°04'0 0.0
2019-Jun-12 20:57N 49°27' E 001°04'0 0.0
2019-Jun-12 20:30N 49°27' E 001°04'0 0.0
2019-Jun-12 19:48N 49°27' E 001°04'0 0.0
2019-Jun-12 19:24N 49°27' E 001°04'0 0.0
2019-Jun-12 18:51N 49°27' E 001°04'0 0.0
2019-Jun-12 18:21N 49°27' E 001°04'0 0.0
2019-Jun-12 18:00N 49°27' E 001°04'0 0.0
2019-Jun-12 17:30N 49°27' E 001°04'0 0.0
2019-Jun-12 17:00N 49°27' E 001°04'0 0.0
2019-Jun-12 16:30N 49°27' E 001°04'0 0.0
2019-Jun-12 16:00N 49°27' E 001°04'0 0.0
2019-Jun-12 15:24N 49°27' E 001°04'0 0.0
2019-Jun-12 14:54N 49°27' E 001°04'0 0.0
2019-Jun-12 14:27N 49°27' E 001°04'0 0.0
2019-Jun-12 13:51N 49°27' E 001°04'0 0.0
2019-Jun-12 13:30N 49°27' E 001°04'0 0.0
2019-Jun-12 12:54N 49°27' E 001°04'0 0.0
2019-Jun-12 12:21N 49°27' E 001°04'0 0.0
2019-Jun-12 11:57N 49°27' E 001°04'0 0.0
2019-Jun-12 11:06N 49°27' E 001°04'0 0.0
2019-Jun-12 11:00N 49°27' E 001°04'0 0.0
2019-Jun-12 10:30N 49°27' E 001°04'0 0.0
2019-Jun-12 09:45N 49°27' E 001°04'0 0.0
2019-Jun-12 09:24N 49°27' E 001°04'0 0.0
2019-Jun-12 08:45N 49°27' E 001°04'0 0.0
2019-Jun-12 08:27N 49°27' E 001°04'0 0.0
2019-Jun-12 07:57N 49°27' E 001°04'0 0.0
2019-Jun-12 07:30N 49°27' E 001°04'0 0.0
2019-Jun-12 06:57N 49°27' E 001°04'0 0.0
2019-Jun-12 06:27N 49°27' E 001°04'0 0.0
2019-Jun-12 05:57N 49°27' E 001°04'0 0.0
2019-Jun-12 05:30N 49°27' E 001°04'0 0.0
2019-Jun-12 05:00N 49°27' E 001°04'0 0.0
2019-Jun-12 04:21N 49°27' E 001°04'0 0.0
2019-Jun-12 03:54N 49°27' E 001°04'0 0.0
2019-Jun-12 03:24N 49°27' E 001°04'0 0.0
2019-Jun-12 03:00N 49°27' E 001°04'0 0.0
2019-Jun-12 01:51N 49°27' E 001°04'0 0.0
2019-Jun-12 01:27N 49°27' E 001°04'0 0.0
2019-Jun-12 00:39N 49°27' E 001°04'0 0.0
2019-Jun-12 00:27N 49°27' E 001°04'0 0.0
2019-Jun-11 23:57N 49°27' E 001°04'0 0.0
2019-Jun-11 23:27N 49°27' E 001°04'0 0.0
2019-Jun-11 22:39N 49°27' E 001°04'0 0.0
2019-Jun-11 22:27N 49°27' E 001°04'0 0.0
2019-Jun-11 22:00N 49°27' E 001°04'0 0.0
2019-Jun-11 21:30N 49°27' E 001°04'0 0.0
2019-Jun-11 21:00N 49°27' E 001°04'0 0.0
2019-Jun-11 20:09N 49°27' E 001°04'0 0.0
2019-Jun-11 20:00N 49°27' E 001°04'0 0.0
2019-Jun-11 19:30N 49°27' E 001°04'0 0.0
2019-Jun-11 18:54N 49°27' E 001°04'0 0.0
2019-Jun-11 18:30N 49°27' E 001°04'0 0.0
2019-Jun-11 18:00N 49°27' E 001°04'0 0.0
2019-Jun-11 17:15N 49°27' E 001°04'0 0.0
2019-Jun-11 16:45N 49°27' E 001°04'0 0.0
2019-Jun-11 16:30N 49°27' E 001°04'0 0.0
2019-Jun-11 16:00N 49°27' E 001°04'0 0.0
2019-Jun-11 15:30N 49°27' E 001°04'0 0.0
2019-Jun-11 14:57N 49°27' E 001°04'0 0.0
2019-Jun-11 14:30N 49°27' E 001°04'0 0.0
2019-Jun-11 13:57N 49°27' E 001°04'0 0.0
2019-Jun-11 13:27N 49°27' E 001°04'0 0.0
2019-Jun-11 12:57N 49°27' E 001°04'0 0.0
2019-Jun-11 12:30N 49°27' E 001°04'0 0.0
2019-Jun-11 11:45N 49°27' E 001°04'0 0.0
2019-Jun-11 11:30N 49°27' E 001°04'0 0.0
2019-Jun-11 11:00N 49°27' E 001°04'0 0.0
2019-Jun-11 10:30N 49°27' E 001°04'0 0.0
2019-Jun-11 09:57N 49°27' E 001°04'0 0.0
2019-Jun-11 09:30N 49°27' E 001°04'0 0.0
2019-Jun-11 08:57N 49°27' E 001°04'0 0.0
2019-Jun-11 08:15N 49°27' E 001°04'0 0.0
2019-Jun-11 07:51N 49°27' E 001°04'0 0.0
2019-Jun-11 07:30N 49°27' E 001°04'0 0.0
2019-Jun-11 06:57N 49°27' E 001°04'0 0.0
2019-Jun-11 06:30N 49°27' E 001°04'0 0.0
2019-Jun-11 05:57N 49°27' E 001°04'0 0.0
2019-Jun-11 04:54N 49°27' E 001°04'0 0.0
2019-Jun-11 04:30N 49°27' E 001°04'0 0.0
2019-Jun-11 03:39N 49°27' E 001°04'0 0.0
2019-Jun-11 03:30N 49°27' E 001°04'0 0.0
2019-Jun-11 02:54N 49°27' E 001°04'0 0.0
2019-Jun-11 02:18N 49°27' E 001°04'0 0.0
2019-Jun-11 01:57N 49°27' E 001°04'0 0.0
2019-Jun-11 01:30N 49°27' E 001°04'0 0.0
2019-Jun-11 01:00N 49°27' E 001°04'0 0.0
2019-Jun-11 00:27N 49°27' E 001°04'0 0.0
2019-Jun-10 23:54N 49°27' E 001°04'0 0.0
2019-Jun-10 23:30N 49°27' E 001°04'0 0.0
2019-Jun-10 23:00N 49°27' E 001°04'0 0.0
2019-Jun-10 22:21N 49°27' E 001°04'0 0.0
2019-Jun-10 21:45N 49°27' E 001°04'0 0.0
2019-Jun-10 21:27N 49°27' E 001°04'0 0.0
2019-Jun-10 20:54N 49°27' E 001°04'0 0.0
2019-Jun-10 20:27N 49°27' E 001°04'0 0.0
2019-Jun-10 19:57N 49°27' E 001°04'0 0.0
2019-Jun-10 19:24N 49°27' E 001°04'0 0.0
2019-Jun-10 18:57N 49°27' E 001°04'0 0.0
2019-Jun-10 18:30N 49°27' E 001°04'0 0.0
2019-Jun-10 17:57N 49°27' E 001°04'0 0.0
2019-Jun-10 17:21N 49°27' E 001°04'0 0.0
2019-Jun-10 16:54N 49°27' E 001°04'0 0.0
2019-Jun-10 16:30N 49°27' E 001°04'0 0.0
2019-Jun-10 15:45N 49°27' E 001°04'0 0.0
2019-Jun-10 15:21N 49°27' E 001°04'0 0.0
2019-Jun-10 15:00N 49°27' E 001°04'0 0.0
2019-Jun-10 14:30N 49°27' E 001°04'0 0.0
2019-Jun-10 14:00N 49°27' E 001°04'0 0.0
2019-Jun-10 13:18N 49°27' E 001°04'0 0.0
2019-Jun-10 13:00N 49°27' E 001°04'0 0.0
2019-Jun-10 12:30N 49°27' E 001°04'0 0.0
2019-Jun-10 12:00N 49°27' E 001°04'0 0.0
2019-Jun-10 11:27N 49°27' E 001°04'0 0.0
2019-Jun-10 11:00N 49°27' E 001°04'0 0.0
2019-Jun-10 10:30N 49°27' E 001°04'0 0.0
2019-Jun-10 09:54N 49°27' E 001°04'0 0.0
2019-Jun-10 09:27N 49°27' E 001°04'0 0.0
2019-Jun-10 08:57N 49°27' E 001°04'0 0.0
2019-Jun-10 08:12N 49°27' E 001°04'0 0.0
2019-Jun-10 08:00N 49°27' E 001°04'0 0.0
2019-Jun-10 07:15N 49°27' E 001°04'0 0.0
2019-Jun-10 06:57N 49°27' E 001°04'0 0.0
2019-Jun-10 06:21N 49°27' E 001°04'0 0.0
2019-Jun-10 06:00N 49°27' E 001°04'0 0.0
2019-Jun-10 05:30N 49°27' E 001°04'0 0.0
2019-Jun-10 05:00N 49°27' E 001°04'0 0.0
2019-Jun-10 04:30N 49°27' E 001°04'0 0.0
2019-Jun-10 04:00N 49°27' E 001°04'0 0.0
2019-Jun-10 03:30N 49°27' E 001°04'0 0.0
2019-Jun-10 03:00N 49°27' E 001°04'0 0.0
2019-Jun-10 02:30N 49°27' E 001°04'0 0.0
2019-Jun-10 02:00N 49°27' E 001°04'0 0.0
2019-Jun-10 01:24N 49°27' E 001°04'0 0.0
2019-Jun-10 00:51N 49°27' E 001°04'0 0.0
2019-Jun-10 00:12N 49°27' E 001°04'0 0.0
2019-Jun-09 23:54N 49°27' E 001°04'0 0.0
2019-Jun-09 23:30N 49°27' E 001°04'0 0.0
2019-Jun-09 23:00N 49°27' E 001°04'0 0.0
2019-Jun-09 22:24N 49°27' E 001°04'0 0.0
2019-Jun-09 22:00N 49°27' E 001°04'0 0.0
2019-Jun-09 21:30N 49°27' E 001°04'0 0.0
2019-Jun-09 20:48N 49°27' E 001°04'0 0.0
2019-Jun-09 20:18N 49°27' E 001°04'0 0.0
2019-Jun-09 19:54N 49°27' E 001°04'0 0.0
2019-Jun-09 19:30N 49°27' E 001°04'0 0.0
2019-Jun-09 19:00N 49°27' E 001°04'0 0.0
2019-Jun-09 18:24N 49°27' E 001°04'0 0.0
2019-Jun-09 18:00N 49°27' E 001°04'0 0.0
2019-Jun-09 17:30N 49°27' E 001°04'0 0.0
2019-Jun-09 16:51N 49°27' E 001°04'0 0.0
2019-Jun-09 16:24N 49°27' E 001°04'0 0.0
2019-Jun-09 16:00N 49°27' E 001°04'0 0.0
2019-Jun-09 15:30N 49°27' E 001°04'0 0.0
2019-Jun-09 14:51N 49°27' E 001°04'0 0.0
2019-Jun-09 14:30N 49°27' E 001°04'0 0.0
2019-Jun-09 13:51N 49°27' E 001°04'0 0.0
2019-Jun-09 13:30N 49°27' E 001°04'0 0.0
2019-Jun-09 13:00N 49°27' E 001°04'0 0.0
2019-Jun-09 12:24N 49°27' E 001°04'0 0.0
2019-Jun-09 11:54N 49°27' E 001°04'0 0.0
2019-Jun-09 11:30N 49°27' E 001°04'0 0.0
2019-Jun-09 10:45N 49°27' E 001°04'0 0.0
2019-Jun-09 10:30N 49°27' E 001°04'0 0.0
2019-Jun-09 09:54N 49°27' E 001°04'0 0.0
2019-Jun-09 09:30N 49°27' E 001°04'0 0.0
2019-Jun-09 09:00N 49°27' E 001°04'0 0.0
2019-Jun-09 08:30N 49°27' E 001°04'0 0.0
2019-Jun-09 07:57N 49°27' E 001°04'0 0.0
2019-Jun-09 07:30N 49°27' E 001°04'0 0.0
2019-Jun-09 07:00N 49°27' E 001°04'0 0.0
2019-Jun-09 06:18N 49°27' E 001°04'0 0.0
2019-Jun-09 06:00N 49°27' E 001°04'0 0.0
2019-Jun-09 05:30N 49°27' E 001°04'0 0.0
2019-Jun-09 05:00N 49°27' E 001°04'0 0.0
2019-Jun-09 03:54N 49°27' E 001°04'0 0.0
2019-Jun-09 03:27N 49°27' E 001°04'0 0.0
2019-Jun-09 02:54N 49°27' E 001°04'0 0.0
2019-Jun-09 02:30N 49°27' E 001°04'0 0.0
2019-Jun-09 02:00N 49°27' E 001°04'0 0.0
2019-Jun-09 01:30N 49°27' E 001°04'0 0.0
2019-Jun-09 01:00N 49°27' E 001°04'0 0.0
2019-Jun-09 00:24N 49°27' E 001°04'0 0.0
2019-Jun-08 23:54N 49°27' E 001°04'0 0.0
2019-Jun-08 23:30N 49°27' E 001°04'0 0.0
2019-Jun-08 23:00N 49°27' E 001°04'0 0.0
2019-Jun-08 22:30N 49°27' E 001°04'0 0.0
2019-Jun-08 22:00N 49°27' E 001°04'0 0.0
2019-Jun-08 21:27N 49°27' E 001°04'0 0.0
2019-Jun-08 21:00N 49°27' E 001°04'0 0.0
2019-Jun-08 20:30N 49°27' E 001°04'0 0.0
2019-Jun-08 19:57N 49°27' E 001°04'0 0.0
2019-Jun-08 19:30N 49°27' E 001°04'0 0.0
2019-Jun-08 18:51N 49°27' E 001°04'0 0.0
2019-Jun-08 18:18N 49°27' E 001°04'0 0.0
2019-Jun-08 17:57N 49°27' E 001°04'0 0.0
2019-Jun-08 17:30N 49°27' E 001°04'0 0.0
2019-Jun-08 17:00N 49°27' E 001°04'0 0.0
2019-Jun-08 16:30N 49°27' E 001°04'0 0.0
2019-Jun-08 16:00N 49°27' E 001°04'0 0.0
2019-Jun-08 15:30N 49°27' E 001°04'0 0.0
2019-Jun-08 15:00N 49°27' E 001°04'0 0.0
2019-Jun-08 14:30N 49°27' E 001°04'0 0.0
2019-Jun-08 14:00N 49°27' E 001°04'0 0.0
2019-Jun-08 13:30N 49°27' E 001°04'0 0.0
2019-Jun-08 13:00N 49°27' E 001°04'0 0.0
2019-Jun-08 12:30N 49°27' E 001°04'0 0.0
2019-Jun-08 12:00N 49°27' E 001°04'0 0.0
2019-Jun-08 11:30N 49°27' E 001°04'0 0.0
2019-Jun-08 11:00N 49°27' E 001°04'0 0.0
2019-Jun-08 10:24N 49°27' E 001°04'0 0.0
2019-Jun-08 09:54N 49°27' E 001°04'0 0.0
2019-Jun-08 09:30N 49°27' E 001°04'0 0.0
2019-Jun-08 09:00N 49°27' E 001°04'0 0.0
2019-Jun-08 08:30N 49°27' E 001°04'0 0.0
2019-Jun-08 08:00N 49°27' E 001°04'0 0.0
2019-Jun-08 07:30N 49°27' E 001°04'0 0.0
2019-Jun-08 07:00N 49°27' E 001°04'0 0.0
2019-Jun-08 06:30N 49°27' E 001°04'0 0.0
2019-Jun-08 06:00N 49°27' E 001°04'0 0.0
2019-Jun-08 05:24N 49°27' E 001°04'0 0.0
2019-Jun-08 04:54N 49°27' E 001°04'0 0.0
2019-Jun-08 04:18N 49°27' E 001°04'0 0.0
2019-Jun-08 03:51N 49°27' E 001°04'0 0.0
2019-Jun-08 03:30N 49°27' E 001°04'0 0.0
2019-Jun-08 02:57N 49°27' E 001°04'0 0.0
2019-Jun-08 02:30N 49°27' E 001°04'0 0.0
2019-Jun-08 01:54N 49°27' E 001°04'0 0.0
2019-Jun-08 01:30N 49°27' E 001°04'0 0.0
2019-Jun-08 01:00N 49°27' E 001°04'0 0.0
2019-Jun-08 00:24N 49°27' E 001°04'0 0.0
2019-Jun-07 23:57N 49°27' E 001°04'0 0.0
2019-Jun-07 23:27N 49°27' E 001°04'0 0.0
2019-Jun-07 22:54N 49°27' E 001°04'0 0.0
2019-Jun-07 22:30N 49°27' E 001°04'0 0.0
2019-Jun-07 22:00N 49°27' E 001°04'0 0.0
2019-Jun-07 21:30N 49°27' E 001°04'0 0.0
2019-Jun-07 21:00N 49°27' E 001°04'0 0.0
2019-Jun-07 20:30N 49°27' E 001°04'0 0.0
2019-Jun-07 19:54N 49°27' E 001°04'0 0.0
2019-Jun-07 19:24N 49°27' E 001°04'0 0.0
2019-Jun-07 19:00N 49°27' E 001°04'0 0.0
2019-Jun-07 18:24N 49°27' E 001°04'0 0.0
2019-Jun-07 18:00N 49°27' E 001°04'0 0.0
2019-Jun-07 17:30N 49°27' E 001°04'0 0.0
2019-Jun-07 16:48N 49°27' E 001°04'0 0.0
2019-Jun-07 16:03N 49°27' E 001°04'0 0.0
2019-Jun-07 16:00N 49°27' E 001°04'0 0.0
2019-Jun-07 15:30N 49°27' E 001°04'0 0.0
2019-Jun-07 14:57N 49°27' E 001°04'0 0.0
2019-Jun-07 14:24N 49°27' E 001°04'0 0.0
2019-Jun-07 14:00N 49°27' E 001°04'0 0.0
2019-Jun-07 13:30N 49°27' E 001°04'0 0.0
2019-Jun-07 12:57N 49°27' E 001°04'0 0.0
2019-Jun-07 12:15N 49°27' E 001°04'0 0.0
2019-Jun-07 11:51N 49°27' E 001°04'0 0.0
2019-Jun-07 11:27N 49°27' E 001°04'0 0.0
2019-Jun-07 11:00N 49°27' E 001°04'0 0.0
2019-Jun-07 10:24N 49°27' E 001°04'0 0.0
2019-Jun-07 09:57N 49°27' E 001°04'0 0.0
2019-Jun-07 09:30N 49°27' E 001°04'0 0.0
2019-Jun-07 09:00N 49°27' E 001°04'0 0.0
2019-Jun-07 08:30N 49°27' E 001°04'0 0.0
2019-Jun-07 07:51N 49°27' E 001°04'0 0.0
2019-Jun-07 07:27N 49°27' E 001°04'0 0.0
2019-Jun-07 07:00N 49°27' E 001°04'0 0.0
2019-Jun-07 06:24N 49°27' E 001°04'0 0.0
2019-Jun-07 06:00N 49°27' E 001°04'0 0.0
2019-Jun-07 05:27N 49°27' E 001°04'0 0.0
2019-Jun-07 05:00N 49°27' E 001°04'0 0.0
2019-Jun-07 04:30N 49°27' E 001°04'0 0.0
2019-Jun-07 03:54N 49°27' E 001°04'0 0.0
2019-Jun-07 03:30N 49°27' E 001°04'0 0.0
2019-Jun-07 02:39N 49°27' E 001°04'0 0.0
2019-Jun-07 02:30N 49°27' E 001°04'0 0.0
2019-Jun-07 02:00N 49°27' E 001°04'1 1.7
2019-Jun-07 01:30N 49°27' E 001°03'0 0.0
2019-Jun-07 00:54N 49°27' E 001°03'0 0.0
2019-Jun-07 00:27N 49°27' E 001°03'0 0.0
2019-Jun-07 00:00N 49°27' E 001°03'0 0.0
2019-Jun-06 23:24N 49°27' E 001°03'0 0.0
2019-Jun-06 22:57N 49°27' E 001°03'  

Dump ship's entire track history